createdAt,value
2017-12-05T00:00:46.932Z,0
2017-12-05T00:01:46.977Z,0
2017-12-05T00:02:46.688Z,0
2017-12-05T00:03:46.993Z,0
2017-12-05T00:04:46.967Z,0
2017-12-05T00:07:01.695Z,0
2017-12-05T00:07:47.029Z,0
2017-12-05T00:08:47.042Z,0
2017-12-05T00:09:46.801Z,0
2017-12-05T00:11:01.490Z,0
2017-12-05T00:11:47.083Z,0
2017-12-05T00:12:47.106Z,0
2017-12-05T00:13:46.895Z,0
2017-12-05T00:14:47.157Z,0
2017-12-05T00:15:47.183Z,0
2017-12-05T00:16:47.162Z,0
2017-12-05T00:17:47.179Z,0
2017-12-05T00:18:46.941Z,0
2017-12-05T00:19:46.929Z,0
2017-12-05T00:20:47.245Z,0
2017-12-05T00:21:47.224Z,0
2017-12-05T00:23:01.930Z,0
2017-12-05T00:23:47.008Z,0
2017-12-05T00:24:47.319Z,0
2017-12-05T00:25:47.308Z,0
2017-12-05T00:27:01.728Z,0
2017-12-05T00:28:01.742Z,0
2017-12-05T00:28:47.112Z,0
2017-12-05T00:29:47.106Z,0
2017-12-05T00:30:47.106Z,0
2017-12-05T00:32:47.427Z,0
2017-12-05T00:33:47.442Z,0
2017-12-05T00:34:47.215Z,0
2017-12-05T00:35:47.213Z,0
2017-12-05T00:36:47.460Z,0
2017-12-05T00:38:47.510Z,0
2017-12-05T00:39:47.531Z,0
2017-12-05T00:40:47.533Z,0
2017-12-05T00:42:02.216Z,0
2017-12-05T00:42:47.587Z,0
2017-12-05T00:43:47.541Z,0
2017-12-05T00:45:02.290Z,0
2017-12-05T00:45:47.343Z,0
2017-12-05T00:46:47.644Z,0
2017-12-05T00:47:47.641Z,0
2017-12-05T00:48:47.639Z,0
2017-12-05T00:49:47.435Z,0
2017-12-05T00:50:47.699Z,0
2017-12-05T00:51:47.723Z,0
2017-12-05T00:53:47.725Z,0
2017-12-05T00:55:02.141Z,0
2017-12-05T00:55:47.748Z,0
2017-12-05T00:57:47.837Z,0
2017-12-05T00:58:47.853Z,0
2017-12-05T00:59:47.818Z,0
2017-12-05T01:00:47.847Z,0
2017-12-05T01:02:02.574Z,0
2017-12-05T01:02:47.846Z,0
2017-12-05T01:03:47.876Z,0
2017-12-05T01:04:47.898Z,0
2017-12-05T01:05:47.931Z,0
2017-12-05T01:06:47.954Z,0
2017-12-05T01:07:47.957Z,0
2017-12-05T01:08:47.950Z,0
2017-12-05T01:10:02.640Z,0
2017-12-05T01:10:48.005Z,0
2017-12-05T01:11:48.002Z,0
2017-12-05T01:12:48.138Z,0
2017-12-05T01:15:02.707Z,0
2017-12-05T01:15:48.073Z,0
2017-12-05T01:16:48.102Z,0
2017-12-05T01:17:47.855Z,0
2017-12-05T01:18:48.118Z,0
2017-12-05T01:19:48.145Z,0
2017-12-05T01:20:48.161Z,0
2017-12-05T01:21:48.198Z,0
2017-12-05T01:22:47.962Z,0
2017-12-05T01:23:48.206Z,0
2017-12-05T01:24:47.962Z,0
2017-12-05T01:26:02.913Z,0
2017-12-05T01:26:48.222Z,0
2017-12-05T01:27:48.006Z,0
2017-12-05T01:29:02.965Z,0
2017-12-05T01:29:48.285Z,0
2017-12-05T01:30:48.329Z,0
2017-12-05T01:31:48.319Z,0
2017-12-05T01:32:48.337Z,0
2017-12-05T01:33:48.360Z,0
2017-12-05T01:34:48.449Z,0
2017-12-05T01:35:48.352Z,0
2017-12-05T01:37:48.437Z,0
2017-12-05T01:38:48.442Z,0
2017-12-05T01:40:02.606Z,0
2017-12-05T01:40:47.935Z,0
2017-12-05T01:42:02.893Z,0
2017-12-05T01:43:03.161Z,0
2017-12-05T01:43:48.497Z,0
2017-12-05T01:46:03.228Z,0
2017-12-05T01:46:48.515Z,0
2017-12-05T01:47:48.563Z,0
2017-12-05T01:48:48.575Z,0
2017-12-05T01:49:48.571Z,0
2017-12-05T01:50:48.616Z,0
2017-12-05T01:51:48.642Z,0
2017-12-05T01:52:48.647Z,0
2017-12-05T01:53:48.656Z,0
2017-12-05T01:54:48.725Z,0
2017-12-05T01:55:48.678Z,0
2017-12-05T01:56:48.711Z,0
2017-12-05T01:58:03.403Z,0
2017-12-05T01:58:48.726Z,0
2017-12-05T01:59:48.755Z,0
2017-12-05T02:00:48.758Z,0
2017-12-05T02:01:48.793Z,0
2017-12-05T02:02:48.773Z,0
2017-12-05T02:04:03.494Z,0
2017-12-05T02:04:48.556Z,0
2017-12-05T02:05:48.863Z,0
2017-12-05T02:06:48.884Z,0
2017-12-05T02:07:48.871Z,0
2017-12-05T02:08:48.922Z,0
2017-12-05T02:09:48.925Z,0
2017-12-05T02:10:48.661Z,0
2017-12-05T02:11:48.951Z,0
2017-12-05T02:13:03.646Z,0
2017-12-05T02:13:48.947Z,0
2017-12-05T02:14:49.024Z,0
2017-12-05T02:15:48.998Z,0
2017-12-05T02:16:49.020Z,0
2017-12-05T02:17:48.824Z,0
2017-12-05T02:18:49.047Z,0
2017-12-05T02:19:49.058Z,0
2017-12-05T02:21:03.481Z,0
2017-12-05T02:21:48.596Z,0
2017-12-05T02:22:49.108Z,0
2017-12-05T02:23:49.130Z,0
2017-12-05T02:24:48.889Z,0
2017-12-05T02:25:49.189Z,0
2017-12-05T02:26:48.918Z,0
2017-12-05T02:27:48.914Z,0
2017-12-05T02:28:49.224Z,0
2017-12-05T02:29:49.357Z,0
2017-12-05T02:30:49.243Z,0
2017-12-05T02:31:49.017Z,0
2017-12-05T02:33:49.304Z,0
2017-12-05T02:34:49.055Z,0
2017-12-05T02:35:49.345Z,0
2017-12-05T02:36:49.330Z,0
2017-12-05T02:37:49.428Z,0
2017-12-05T02:38:49.394Z,0
2017-12-05T02:39:49.405Z,0
2017-12-05T02:40:49.423Z,0
2017-12-05T02:41:49.413Z,0
2017-12-05T02:43:04.106Z,0
2017-12-05T02:43:49.470Z,0
2017-12-05T02:45:04.154Z,0
2017-12-05T02:45:49.471Z,0
2017-12-05T02:47:49.535Z,0
2017-12-05T02:48:49.331Z,0
2017-12-05T02:49:49.534Z,0
2017-12-05T02:51:03.975Z,0
2017-12-05T02:51:49.608Z,0
2017-12-05T02:52:49.602Z,0
2017-12-05T02:53:49.610Z,0
2017-12-05T02:54:49.610Z,0
2017-12-05T02:55:49.627Z,0
2017-12-05T02:57:04.326Z,0
2017-12-05T02:58:04.080Z,0
2017-12-05T02:59:49.708Z,0
2017-12-05T03:01:04.368Z,0
2017-12-05T03:01:49.480Z,0
2017-12-05T03:02:49.252Z,0
2017-12-05T03:03:49.750Z,0
2017-12-05T03:05:04.192Z,0
2017-12-05T03:05:49.793Z,0
2017-12-05T03:06:49.549Z,0
2017-12-05T03:07:49.580Z,0
2017-12-05T03:08:49.857Z,0
2017-12-05T03:09:49.880Z,0
2017-12-05T03:11:49.629Z,0
2017-12-05T03:12:49.682Z,0
2017-12-05T03:13:49.682Z,0
2017-12-05T03:14:49.696Z,0
2017-12-05T03:15:49.722Z,0
2017-12-05T03:17:04.666Z,0
2017-12-05T03:17:50.010Z,0
2017-12-05T03:18:50.056Z,0
2017-12-05T03:19:50.017Z,0
2017-12-05T03:22:04.717Z,0
2017-12-05T03:22:49.851Z,0
2017-12-05T03:23:50.108Z,0
2017-12-05T03:24:50.106Z,0
2017-12-05T03:25:50.095Z,0
2017-12-05T03:27:04.798Z,0
2017-12-05T03:27:50.152Z,0
2017-12-05T03:28:50.183Z,0
2017-12-05T03:29:50.189Z,0
2017-12-05T03:30:50.181Z,0
2017-12-05T03:31:49.968Z,0
2017-12-05T03:33:04.906Z,0
2017-12-05T03:33:50.291Z,0
2017-12-05T03:34:49.993Z,0
2017-12-05T03:35:50.020Z,0
2017-12-05T03:37:04.734Z,0
2017-12-05T03:37:50.304Z,0
2017-12-05T03:38:50.063Z,0
2017-12-05T03:39:50.073Z,0
2017-12-05T03:40:50.117Z,0
2017-12-05T03:41:50.406Z,0
2017-12-05T03:42:50.118Z,0
2017-12-05T03:43:50.404Z,0
2017-12-05T03:44:50.420Z,0
2017-12-05T03:45:50.409Z,0
2017-12-05T03:46:50.462Z,0
2017-12-05T03:48:05.168Z,0
2017-12-05T03:49:04.887Z,0
2017-12-05T03:49:50.500Z,0
2017-12-05T03:51:04.916Z,0
2017-12-05T03:51:50.274Z,0
2017-12-05T03:53:05.239Z,0
2017-12-05T03:53:50.344Z,0
2017-12-05T03:54:50.595Z,0
2017-12-05T03:55:50.588Z,0
2017-12-05T03:56:50.380Z,0
2017-12-05T03:58:05.292Z,0
2017-12-05T03:58:50.426Z,0
2017-12-05T03:59:50.426Z,0
2017-12-05T04:00:50.670Z,0
2017-12-05T04:02:05.135Z,0
2017-12-05T04:02:50.720Z,0
2017-12-05T04:03:50.522Z,0
2017-12-05T04:04:50.758Z,0
2017-12-05T04:05:50.771Z,0
2017-12-05T04:07:05.210Z,0
2017-12-05T04:07:50.787Z,0
2017-12-05T04:09:05.490Z,0
2017-12-05T04:09:50.835Z,0
2017-12-05T04:11:05.494Z,0
2017-12-05T04:11:50.604Z,0
2017-12-05T04:12:50.870Z,0
2017-12-05T04:13:50.913Z,0
2017-12-05T04:14:50.921Z,0
2017-12-05T04:15:50.937Z,0
2017-12-05T04:16:50.671Z,0
2017-12-05T04:17:50.956Z,0
2017-12-05T04:18:50.958Z,0
2017-12-05T04:20:05.680Z,0
2017-12-05T04:21:05.671Z,0
2017-12-05T04:21:51.010Z,0
2017-12-05T04:22:51.034Z,0
2017-12-05T04:23:50.803Z,0
2017-12-05T04:25:05.503Z,0
2017-12-05T04:26:05.518Z,0
2017-12-05T04:26:51.114Z,0
2017-12-05T04:28:51.147Z,0
2017-12-05T04:29:51.168Z,0
2017-12-05T04:30:50.934Z,0
2017-12-05T04:31:51.199Z,0
2017-12-05T04:32:51.222Z,0
2017-12-05T04:34:05.885Z,0
2017-12-05T04:34:50.996Z,0
2017-12-05T04:36:05.919Z,0
2017-12-05T04:36:51.041Z,0
2017-12-05T04:37:51.286Z,0
2017-12-05T04:38:51.298Z,0
2017-12-05T04:39:51.304Z,0
2017-12-05T04:40:51.084Z,0
2017-12-05T04:41:51.070Z,0
2017-12-05T04:43:06.008Z,0
2017-12-05T04:43:51.395Z,0
2017-12-05T04:44:51.422Z,0
2017-12-05T04:45:51.154Z,0
2017-12-05T04:46:51.432Z,0
2017-12-05T04:47:51.303Z,0
2017-12-05T04:48:51.197Z,0
2017-12-05T04:49:51.594Z,0
2017-12-05T04:50:51.221Z,0
2017-12-05T04:52:06.190Z,0
2017-12-05T04:53:51.539Z,0
2017-12-05T04:54:51.569Z,0
2017-12-05T04:55:51.462Z,0
2017-12-05T04:56:51.361Z,0
2017-12-05T04:58:06.292Z,0
2017-12-05T04:58:51.605Z,0
2017-12-05T04:59:51.403Z,0
2017-12-05T05:00:51.420Z,0
2017-12-05T05:01:51.458Z,0
2017-12-05T05:03:51.454Z,0
2017-12-05T05:04:51.449Z,0
2017-12-05T05:05:51.504Z,0
2017-12-05T05:06:51.503Z,0
2017-12-05T05:09:06.440Z,0
2017-12-05T05:09:51.557Z,0
2017-12-05T05:10:51.569Z,0
2017-12-05T05:11:51.332Z,0
2017-12-05T05:12:51.948Z,0
2017-12-05T05:13:51.877Z,0
2017-12-05T05:14:51.899Z,0
2017-12-05T05:15:51.672Z,0
2017-12-05T05:16:51.691Z,0
2017-12-05T05:17:51.685Z,0
2017-12-05T05:18:51.939Z,0
2017-12-05T05:20:06.626Z,0
2017-12-05T05:20:51.750Z,0
2017-12-05T05:21:51.768Z,0
2017-12-05T05:23:21.102Z,0
2017-12-05T05:23:51.783Z,0
2017-12-05T05:24:52.029Z,0
2017-12-05T05:25:52.119Z,0
2017-12-05T05:26:51.841Z,0
2017-12-05T05:27:52.068Z,0
2017-12-05T05:29:06.782Z,0
2017-12-05T05:29:52.138Z,0
2017-12-05T05:30:51.896Z,0
2017-12-05T05:31:51.908Z,0
2017-12-05T05:32:52.227Z,0
2017-12-05T05:33:52.187Z,0
2017-12-05T05:34:52.242Z,0
2017-12-05T05:35:52.272Z,0
2017-12-05T05:36:52.011Z,0
2017-12-05T05:37:52.273Z,0
2017-12-05T05:39:06.950Z,0
2017-12-05T05:39:52.304Z,0
2017-12-05T05:40:52.336Z,0
2017-12-05T05:41:52.082Z,0
2017-12-05T05:42:52.365Z,0
2017-12-05T05:43:52.396Z,0
2017-12-05T05:44:52.399Z,0
2017-12-05T05:45:52.418Z,0
2017-12-05T05:46:52.447Z,0
2017-12-05T05:47:52.410Z,0
2017-12-05T05:48:51.938Z,0
2017-12-05T05:49:52.220Z,0
2017-12-05T05:50:52.465Z,0
2017-12-05T05:51:52.507Z,0
2017-12-05T05:52:52.515Z,0
2017-12-05T05:53:52.045Z,0
2017-12-05T05:55:52.040Z,0
2017-12-05T05:56:52.596Z,0
2017-12-05T05:57:52.343Z,0
2017-12-05T05:58:52.603Z,0
2017-12-05T06:00:07.059Z,0
2017-12-05T06:02:07.337Z,0
2017-12-05T06:03:07.104Z,0
2017-12-05T06:03:52.483Z,0
2017-12-05T06:04:52.749Z,0
2017-12-05T06:05:52.247Z,0
2017-12-05T06:06:52.493Z,0
2017-12-05T06:08:07.172Z,0
2017-12-05T06:08:52.545Z,0
2017-12-05T06:10:07.464Z,0
2017-12-05T06:11:22.150Z,0
2017-12-05T06:11:52.579Z,0
2017-12-05T06:12:52.567Z,0
2017-12-05T06:14:07.533Z,0
2017-12-05T06:14:52.643Z,0
2017-12-05T06:16:07.555Z,0
2017-12-05T06:17:07.568Z,0
2017-12-05T06:18:07.580Z,0
2017-12-05T06:18:52.975Z,0
2017-12-05T06:19:52.752Z,0
2017-12-05T06:20:52.964Z,0
2017-12-05T06:21:53.003Z,0
2017-12-05T06:22:52.503Z,0
2017-12-05T06:23:53.031Z,0
2017-12-05T06:25:07.701Z,0
2017-12-05T06:25:53.063Z,0
2017-12-05T06:27:07.753Z,0
2017-12-05T06:27:53.115Z,0
2017-12-05T06:28:52.884Z,0
2017-12-05T06:29:53.121Z,0
2017-12-05T06:30:53.161Z,4
2017-12-05T06:32:07.847Z,4
2017-12-05T06:32:52.987Z,0
2017-12-05T06:34:07.866Z,4
2017-12-05T06:34:52.967Z,4
2017-12-05T06:35:52.983Z,4
2017-12-05T06:36:53.022Z,4
2017-12-05T06:37:53.052Z,4
2017-12-05T06:38:53.057Z,4
2017-12-05T06:39:53.059Z,4
2017-12-05T06:40:53.079Z,8
2017-12-05T06:41:53.330Z,12
2017-12-05T06:43:07.776Z,8
2017-12-05T06:44:07.787Z,12
2017-12-05T06:45:53.409Z,16
2017-12-05T06:46:53.416Z,16
2017-12-05T06:47:53.549Z,16
2017-12-05T06:48:53.219Z,20
2017-12-05T06:49:53.238Z,24
2017-12-05T06:50:53.491Z,28
2017-12-05T06:52:08.190Z,24
2017-12-05T06:53:08.197Z,28
2017-12-05T06:53:53.544Z,32
2017-12-05T06:54:53.081Z,48
2017-12-05T06:55:53.595Z,48
2017-12-05T06:56:53.579Z,52
2017-12-05T06:58:22.944Z,60
2017-12-05T06:58:53.638Z,64
2017-12-05T06:59:53.632Z,64
2017-12-05T07:00:53.438Z,60
2017-12-05T07:01:53.442Z,68
2017-12-05T07:03:08.369Z,68
2017-12-05T07:03:53.725Z,76
2017-12-05T07:04:53.516Z,80
2017-12-05T07:05:53.527Z,104
2017-12-05T07:06:53.754Z,96
2017-12-05T07:07:53.785Z,104
2017-12-05T07:08:53.548Z,92
2017-12-05T07:09:53.819Z,120
2017-12-05T07:10:53.617Z,132
2017-12-05T07:11:53.589Z,116
2017-12-05T07:12:53.611Z,128
2017-12-05T07:13:53.879Z,160
2017-12-05T07:14:53.926Z,168
2017-12-05T07:15:53.667Z,192
2017-12-05T07:16:53.939Z,176
2017-12-05T07:17:53.829Z,132
2017-12-05T07:18:53.738Z,160
2017-12-05T07:19:53.811Z,156
2017-12-05T07:20:54.018Z,144
2017-12-05T07:21:53.764Z,164
2017-12-05T07:22:53.791Z,176
2017-12-05T07:23:54.091Z,156
2017-12-05T07:24:54.071Z,188
2017-12-05T07:26:08.759Z,212
2017-12-05T07:26:54.111Z,228
2017-12-05T07:27:53.640Z,252
2017-12-05T07:29:08.799Z,264
2017-12-05T07:30:08.839Z,244
2017-12-05T07:30:53.965Z,256
2017-12-05T07:31:54.210Z,240
2017-12-05T07:33:53.995Z,296
2017-12-05T07:34:54.316Z,316
2017-12-05T07:35:54.295Z,220
2017-12-05T07:37:08.952Z,256
2017-12-05T07:37:54.294Z,264
2017-12-05T07:38:54.083Z,264
2017-12-05T07:39:54.062Z,248
2017-12-05T07:40:54.391Z,252
2017-12-05T07:41:54.392Z,272
2017-12-05T07:42:54.467Z,312
2017-12-05T07:43:54.152Z,252
2017-12-05T07:44:54.462Z,340
2017-12-05T07:46:08.870Z,268
2017-12-05T07:46:54.238Z,296
2017-12-05T07:47:54.461Z,332
2017-12-05T07:48:54.533Z,336
2017-12-05T07:49:54.494Z,380
2017-12-05T07:50:54.544Z,520
2017-12-05T07:52:08.950Z,496
2017-12-05T07:52:54.592Z,552
2017-12-05T07:54:08.998Z,572
2017-12-05T07:54:54.373Z,644
2017-12-05T07:55:54.626Z,704
2017-12-05T07:56:54.633Z,624
2017-12-05T07:57:54.632Z,672
2017-12-05T07:59:54.777Z,696
2017-12-05T08:00:54.714Z,572
2017-12-05T08:02:09.146Z,616
2017-12-05T08:02:54.492Z,588
2017-12-05T08:03:54.756Z,672
2017-12-05T08:04:54.778Z,596
2017-12-05T08:05:54.788Z,764
2017-12-05T08:06:54.823Z,720
2017-12-05T08:08:54.868Z,748
2017-12-05T08:09:54.633Z,820
2017-12-05T08:10:54.942Z,892
2017-12-05T08:11:54.902Z,928
2017-12-05T08:12:54.917Z,852
2017-12-05T08:13:54.670Z,728
2017-12-05T08:14:55.173Z,636
2017-12-05T08:15:55.069Z,756
2017-12-05T08:16:54.988Z,580
2017-12-05T08:18:09.791Z,624
2017-12-05T08:19:09.701Z,848
2017-12-05T08:19:55.062Z,760
2017-12-05T08:20:55.039Z,816
2017-12-05T08:22:54.849Z,852
2017-12-05T08:23:54.930Z,816
2017-12-05T08:24:55.136Z,820
2017-12-05T08:25:54.903Z,760
2017-12-05T08:26:55.150Z,924
2017-12-05T08:27:55.189Z,736
2017-12-05T08:28:55.175Z,800
2017-12-05T08:30:09.874Z,864
2017-12-05T08:30:54.987Z,824
2017-12-05T08:31:55.266Z,772
2017-12-05T08:33:09.924Z,1036
2017-12-05T08:33:55.394Z,1072
2017-12-05T08:35:09.984Z,1056
2017-12-05T08:35:55.317Z,1148
2017-12-05T08:36:55.077Z,1032
2017-12-05T08:38:09.757Z,1056
2017-12-05T08:38:55.374Z,976
2017-12-05T08:39:55.421Z,1300
2017-12-05T08:40:55.441Z,1716
2017-12-05T08:42:10.129Z,2084
2017-12-05T08:43:55.445Z,1648
2017-12-05T08:44:55.512Z,1788
2017-12-05T08:45:55.512Z,1820
2017-12-05T08:46:55.527Z,1996
2017-12-05T08:47:55.290Z,2100
2017-12-05T08:48:55.584Z,2232
2017-12-05T08:49:55.589Z,2664
2017-12-05T08:50:55.623Z,2900
2017-12-05T08:51:55.596Z,2880
2017-12-05T08:52:55.634Z,2860
2017-12-05T08:54:10.320Z,2956
2017-12-05T08:54:55.656Z,3164
2017-12-05T08:55:55.690Z,2800
2017-12-05T08:57:55.731Z,2036
2017-12-05T08:58:55.725Z,1432
2017-12-05T08:59:55.779Z,1088
2017-12-05T09:00:55.768Z,1020
2017-12-05T09:01:55.556Z,864
2017-12-05T09:02:55.792Z,928
2017-12-05T09:05:10.497Z,988
2017-12-05T09:05:55.637Z,928
2017-12-05T09:06:55.634Z,800
2017-12-05T09:07:55.931Z,860
2017-12-05T09:08:55.920Z,896
2017-12-05T09:10:10.589Z,1152
2017-12-05T09:10:55.944Z,1140
2017-12-05T09:11:55.987Z,1480
2017-12-05T09:12:55.984Z,1228
2017-12-05T09:13:55.757Z,1504
2017-12-05T09:14:56.031Z,1404
2017-12-05T09:15:55.815Z,1016
2017-12-05T09:17:10.708Z,1012
2017-12-05T09:18:13.060Z,944
2017-12-05T09:18:55.937Z,968
2017-12-05T09:20:10.791Z,1400
2017-12-05T09:21:10.555Z,1220
2017-12-05T09:21:56.187Z,1248
2017-12-05T09:22:55.946Z,1256
2017-12-05T09:23:56.223Z,1236
2017-12-05T09:24:56.232Z,1152
2017-12-05T09:26:56.235Z,1016
2017-12-05T09:28:10.934Z,972
2017-12-05T09:28:56.321Z,1056
2017-12-05T09:29:56.317Z,1316
2017-12-05T09:30:56.310Z,1236
2017-12-05T09:31:56.325Z,1076
2017-12-05T09:33:56.387Z,1176
2017-12-05T09:34:56.401Z,1192
2017-12-05T09:35:56.442Z,1132
2017-12-05T09:37:11.118Z,1520
2017-12-05T09:38:11.110Z,1356
2017-12-05T09:40:11.149Z,1248
2017-12-05T09:40:56.535Z,1024
2017-12-05T09:41:56.490Z,1056
2017-12-05T09:42:56.513Z,944
2017-12-05T09:43:56.282Z,896
2017-12-05T09:44:56.559Z,816
2017-12-05T09:45:56.697Z,860
2017-12-05T09:46:56.627Z,840
2017-12-05T09:47:56.643Z,908
2017-12-05T09:48:56.626Z,936
2017-12-05T09:50:11.335Z,1328
2017-12-05T09:50:56.695Z,1504
2017-12-05T09:51:56.897Z,1448
2017-12-05T09:53:11.371Z,1148
2017-12-05T09:53:56.203Z,1236
2017-12-05T09:54:56.747Z,1508
2017-12-05T09:56:11.444Z,1332
2017-12-05T09:56:56.803Z,1216
2017-12-05T09:57:56.779Z,1260
2017-12-05T09:59:56.862Z,1412
2017-12-05T10:00:56.932Z,1240
2017-12-05T10:02:56.919Z,1520
2017-12-05T10:03:56.682Z,1568
2017-12-05T10:04:56.679Z,1272
2017-12-05T10:05:56.671Z,1116
2017-12-05T10:07:11.635Z,1256
2017-12-05T10:08:11.416Z,1228
2017-12-05T10:08:56.790Z,1320
2017-12-05T10:09:57.037Z,1140
2017-12-05T10:10:57.132Z,1284
2017-12-05T10:11:57.057Z,1548
2017-12-05T10:12:56.822Z,1540
2017-12-05T10:13:57.133Z,1644
2017-12-05T10:14:57.138Z,1468
2017-12-05T10:16:11.534Z,1456
2017-12-05T10:16:57.157Z,1788
2017-12-05T10:17:57.180Z,1976
2017-12-05T10:18:57.228Z,1820
2017-12-05T10:19:57.247Z,1528
2017-12-05T10:20:57.196Z,1368
2017-12-05T10:21:57.220Z,1348
2017-12-05T10:22:57.272Z,1220
2017-12-05T10:24:11.955Z,1208
2017-12-05T10:24:57.279Z,1220
2017-12-05T10:25:57.326Z,1252
2017-12-05T10:26:57.354Z,1272
2017-12-05T10:27:57.364Z,1256
2017-12-05T10:29:12.078Z,1276
2017-12-05T10:29:57.355Z,1480
2017-12-05T10:30:57.424Z,1420
2017-12-05T10:31:57.449Z,1188
2017-12-05T10:32:57.187Z,1120
2017-12-05T10:33:57.450Z,1276
2017-12-05T10:34:57.501Z,1348
2017-12-05T10:35:57.235Z,1380
2017-12-05T10:36:57.293Z,1528
2017-12-05T10:37:57.533Z,1692
2017-12-05T10:38:57.548Z,1404
2017-12-05T10:40:12.239Z,1428
2017-12-05T10:41:12.324Z,1124
2017-12-05T10:42:12.033Z,944
2017-12-05T10:42:57.630Z,1064
2017-12-05T10:44:12.337Z,968
2017-12-05T10:44:57.413Z,900
2017-12-05T10:45:57.693Z,816
2017-12-05T10:46:57.713Z,1136
2017-12-05T10:47:57.744Z,1356
2017-12-05T10:48:57.726Z,1076
2017-12-05T10:49:57.732Z,1224
2017-12-05T10:51:12.432Z,1160
2017-12-05T10:51:57.812Z,1232
2017-12-05T10:52:57.552Z,1372
2017-12-05T10:54:12.481Z,1324
2017-12-05T10:54:57.867Z,1400
2017-12-05T10:56:12.551Z,1424
2017-12-05T10:56:57.642Z,1688
2017-12-05T10:57:57.647Z,1784
2017-12-05T10:58:57.898Z,2152
2017-12-05T10:59:57.928Z,2016
2017-12-05T11:00:57.707Z,2040
2017-12-05T11:01:57.962Z,2144
2017-12-05T11:02:58.005Z,2032
2017-12-05T11:03:58.005Z,1960
2017-12-05T11:04:58.009Z,2048
2017-12-05T11:06:12.703Z,2612
2017-12-05T11:06:58.048Z,2668
2017-12-05T11:07:58.095Z,2284
2017-12-05T11:08:57.878Z,2384
2017-12-05T11:09:58.129Z,2384
2017-12-05T11:12:12.841Z,2948
2017-12-05T11:12:58.184Z,2496
2017-12-05T11:13:58.205Z,1924
2017-12-05T11:14:57.938Z,2276
2017-12-05T11:15:58.268Z,2716
2017-12-05T11:16:58.256Z,2696
2017-12-05T11:17:58.257Z,2564
2017-12-05T11:18:58.323Z,2244
2017-12-05T11:19:58.296Z,1880
2017-12-05T11:20:58.322Z,1660
2017-12-05T11:21:58.334Z,2028
2017-12-05T11:22:58.325Z,1960
2017-12-05T11:23:58.386Z,2872
2017-12-05T11:24:58.431Z,2352
2017-12-05T11:25:58.390Z,2672
2017-12-05T11:26:58.164Z,1904
2017-12-05T11:28:13.117Z,1876
2017-12-05T11:28:58.208Z,2404
2017-12-05T11:30:13.183Z,2292
2017-12-05T11:30:58.273Z,2232
2017-12-05T11:31:58.277Z,2160
2017-12-05T11:32:58.562Z,2592
2017-12-05T11:34:58.606Z,2060
2017-12-05T11:35:58.598Z,2092
2017-12-05T11:36:58.624Z,2212
2017-12-05T11:37:58.622Z,2216
2017-12-05T11:38:58.645Z,2084
2017-12-05T11:39:58.414Z,2040
2017-12-05T11:40:58.436Z,1888
2017-12-05T11:43:13.370Z,1856
2017-12-05T11:43:58.777Z,1524
2017-12-05T11:44:58.829Z,1592
2017-12-05T11:45:58.804Z,1636
2017-12-05T11:46:58.827Z,2112
2017-12-05T11:48:13.462Z,1924
2017-12-05T11:49:13.484Z,1596
2017-12-05T11:49:58.584Z,1924
2017-12-05T11:50:58.886Z,1836
2017-12-05T11:51:58.881Z,1472
2017-12-05T11:53:13.580Z,1440
2017-12-05T11:53:58.670Z,1528
2017-12-05T11:55:13.600Z,1328
2017-12-05T11:55:58.957Z,1296
2017-12-05T11:56:58.493Z,1216
2017-12-05T11:57:58.998Z,1224
2017-12-05T11:58:59.012Z,1472
2017-12-05T11:59:59.038Z,1316
2017-12-05T12:00:59.144Z,1284
2017-12-05T12:02:13.752Z,1292
2017-12-05T12:03:13.783Z,1208
2017-12-05T12:03:59.105Z,1200
2017-12-05T12:04:59.140Z,1156
2017-12-05T12:05:59.123Z,1268
2017-12-05T12:06:59.209Z,1404
2017-12-05T12:07:58.931Z,1148
2017-12-05T12:08:59.211Z,1048
2017-12-05T12:09:59.267Z,928
2017-12-05T12:10:59.232Z,1152
2017-12-05T12:11:59.257Z,1260
2017-12-05T12:12:59.022Z,1220
2017-12-05T12:13:59.051Z,1552
2017-12-05T12:15:14.083Z,1384
2017-12-05T12:16:13.746Z,1232
2017-12-05T12:16:59.081Z,1128
2017-12-05T12:17:59.378Z,1212
2017-12-05T12:20:14.057Z,1024
2017-12-05T12:20:59.445Z,1032
2017-12-05T12:21:59.193Z,1072
2017-12-05T12:22:59.478Z,924
2017-12-05T12:24:59.242Z,680
2017-12-05T12:25:59.505Z,788
2017-12-05T12:26:59.285Z,928
2017-12-05T12:27:59.280Z,804
2017-12-05T12:28:59.568Z,628
2017-12-05T12:33:14.395Z,492
2017-12-05T12:34:14.349Z,488
2017-12-05T12:34:59.422Z,500
2017-12-05T12:35:59.446Z,344
2017-12-05T12:36:59.708Z,376
2017-12-05T12:38:59.758Z,424
2017-12-05T12:39:59.511Z,436
2017-12-05T12:40:59.593Z,600
2017-12-05T12:41:59.773Z,664
2017-12-05T12:42:59.574Z,924
2017-12-05T12:43:59.587Z,848
2017-12-05T12:44:59.872Z,904
2017-12-05T12:46:14.555Z,800
2017-12-05T12:47:14.614Z,992
2017-12-05T12:47:59.929Z,1068
2017-12-05T12:48:59.700Z,1220
2017-12-05T12:50:14.652Z,1392
2017-12-05T12:50:59.726Z,1436
2017-12-05T12:52:00.016Z,1364
2017-12-05T12:53:00.021Z,1228
2017-12-05T12:53:59.813Z,1084
2017-12-05T12:55:00.012Z,936
2017-12-05T12:56:14.752Z,1128
2017-12-05T12:56:59.841Z,1168
2017-12-05T12:58:00.092Z,968
2017-12-05T13:00:00.143Z,1104
2017-12-05T13:01:00.226Z,1032
2017-12-05T13:02:00.140Z,1100
2017-12-05T13:03:14.871Z,952
2017-12-05T13:04:14.861Z,884
2017-12-05T13:05:00.238Z,1056
2017-12-05T13:06:00.257Z,1060
2017-12-05T13:07:00.016Z,968
2017-12-05T13:08:00.288Z,948
2017-12-05T13:09:00.284Z,1012
2017-12-05T13:10:00.299Z,968
2017-12-05T13:11:00.303Z,1440
2017-12-05T13:12:00.369Z,1184
2017-12-05T13:13:00.425Z,1572
2017-12-05T13:14:00.129Z,1372
2017-12-05T13:15:00.430Z,1124
2017-12-05T13:16:00.147Z,1132
2017-12-05T13:17:00.475Z,1392
2017-12-05T13:18:15.122Z,1208
2017-12-05T13:19:00.488Z,1476
2017-12-05T13:20:00.526Z,1636
2017-12-05T13:21:00.521Z,1312
2017-12-05T13:22:00.544Z,1276
2017-12-05T13:23:00.306Z,1132
2017-12-05T13:24:00.554Z,972
2017-12-05T13:25:00.593Z,784
2017-12-05T13:26:15.251Z,696
2017-12-05T13:27:00.621Z,576
2017-12-05T13:28:00.629Z,540
2017-12-05T13:29:00.148Z,480
2017-12-05T13:30:00.707Z,448
2017-12-05T13:31:15.122Z,392
2017-12-05T13:32:00.721Z,472
2017-12-05T13:33:00.738Z,504
2017-12-05T13:34:00.717Z,572
2017-12-05T13:35:15.451Z,568
2017-12-05T13:36:00.778Z,552
2017-12-05T13:37:00.817Z,476
2017-12-05T13:38:00.854Z,544
2017-12-05T13:39:00.800Z,448
2017-12-05T13:40:00.595Z,448
2017-12-05T13:41:00.623Z,364
2017-12-05T13:42:15.533Z,368
2017-12-05T13:43:00.922Z,376
2017-12-05T13:44:00.928Z,396
2017-12-05T13:45:15.687Z,492
2017-12-05T13:46:00.958Z,460
2017-12-05T13:47:00.987Z,528
2017-12-05T13:48:00.770Z,616
2017-12-05T13:50:15.682Z,660
2017-12-05T13:51:01.059Z,652
2017-12-05T13:52:00.827Z,660
2017-12-05T13:53:01.083Z,896
2017-12-05T13:54:01.090Z,696
2017-12-05T13:55:00.900Z,644
2017-12-05T13:56:01.139Z,496
2017-12-05T13:57:01.169Z,480
2017-12-05T13:58:15.913Z,568
2017-12-05T13:59:01.219Z,604
2017-12-05T14:00:01.205Z,716
2017-12-05T14:01:01.230Z,732
2017-12-05T14:02:00.983Z,740
2017-12-05T14:03:01.282Z,696
2017-12-05T14:04:01.284Z,768
2017-12-05T14:05:01.358Z,800
2017-12-05T14:06:15.985Z,768
2017-12-05T14:07:16.015Z,776
2017-12-05T14:08:16.039Z,772
2017-12-05T14:09:01.369Z,644
2017-12-05T14:10:01.380Z,668
2017-12-05T14:11:01.434Z,548
2017-12-05T14:12:01.442Z,512
2017-12-05T14:13:01.453Z,476
2017-12-05T14:14:01.203Z,472
2017-12-05T14:15:01.502Z,516
2017-12-05T14:16:01.521Z,476
2017-12-05T14:17:01.549Z,416
2017-12-05T14:18:01.553Z,380
2017-12-05T14:19:01.553Z,380
2017-12-05T14:20:01.561Z,360
2017-12-05T14:21:01.600Z,356
2017-12-05T14:22:16.334Z,316
2017-12-05T14:23:01.628Z,304
2017-12-05T14:25:01.657Z,260
2017-12-05T14:26:01.669Z,208
2017-12-05T14:27:01.708Z,180
2017-12-05T14:28:01.729Z,180
2017-12-05T14:29:01.762Z,172
2017-12-05T14:30:16.443Z,216
2017-12-05T14:31:01.788Z,216
2017-12-05T14:32:01.541Z,204
2017-12-05T14:33:01.562Z,192
2017-12-05T14:34:01.853Z,176
2017-12-05T14:35:01.853Z,188
2017-12-05T14:36:01.622Z,156
2017-12-05T14:37:01.643Z,148
2017-12-05T14:38:16.585Z,148
2017-12-05T14:39:01.671Z,140
2017-12-05T14:40:01.994Z,128
2017-12-05T14:41:16.619Z,124
2017-12-05T14:42:01.463Z,120
2017-12-05T14:43:01.947Z,104
2017-12-05T14:44:02.015Z,100
2017-12-05T14:45:02.040Z,88
2017-12-05T14:46:02.047Z,88
2017-12-05T14:47:02.065Z,84
2017-12-05T14:48:02.160Z,72
2017-12-05T14:49:01.838Z,56
2017-12-05T14:50:01.864Z,56